Airfield :
LOGIN :

Register | Disclaimer

   EN    FR    IT 

 










Legend :    VFR   Marginal VFR   IFR   Intensive IFR   Very Intensive IFR
Visi :
Ceiling :
>= 8 km
>= 3000ft
5 to 8 km
1000 to 3000 ft
1500m to 5 km
500 to 1000 ft
800 to 1500m
200 to 500 ft
< 800m
< 200 ft
Symbols :   Thunderstorms  Fog  Heavy snow  Heavy precipitations  Wind > 20 kt
SIGMETs :     Misc.  Thunderstorms  Icing  Turbulence  Mountain Waves  Volcanic Ashes






- Airport Elevation : 280 ft
- IATA code : FAE


EKVG - Vagar

CURRENT METAR :
  • 092120Z AUTO 14023KT 3200 -RASN BKN011/// OVC021/// 03/02 Q0999

EXPIRED METARs :
  • 092050Z AUTO 14023G34KT 4700 RA OVC011/// 03/01 Q0999
  • 092020Z AUTO 14025KT 4900 RA OVC011/// 02/01 Q1000
  • 091950Z AUTO 14021KT 6000 -RA BKN012/// 02/00 Q1002
  • 091920Z AUTO 15022KT 8000 -RA BKN015/// 02/00 Q1003
  • 091850Z AUTO 15020KT 9999 -RA BKN025/// BKN041/// 03/M01 Q1004

Expired Forecast.



MET'MAP, your aeronautical weather chart ! - Copyright ORBIFLY December 2007 - Disclaimer

ORBIFLY MET'MAP TEAM :

Programming & Development : Alexandra Zaïnal
Concept & original design : Baudouin d'Aumeries
Assistance for programming : Marc-Olivier Méhu
Technical & hardware support : Manuel Goepfert

Contact : metmap@orbifly.com




SOURCES & CREDITS :

   NOAA